Phoenix, AZ (85018)

7:46 PM MST on September 17, 2014 (GMT -0700)
AZCC | Change Station
CLOSE
Current Station
Personal Weather Station
Location: Phoenix, AZ
Elevation: 1270 ft
Nearby Weather Stations
Active Advisory: Flash Flood Watch Active Notice: Public Information Statement

Elev 1270 ft 33.48 °N, 111.95 °W | Updated 14 seconds ago

Mostly Cloudy
Mostly Cloudy
81.0 °F
Feels Like 84 °F
N
0.0
Wind Variable Wind from ESE
Gusts 0.9 mph

Today
High -- | Low -- °F
--% Chance of Precip.
Yesterday
High -- | Low -- °F
Precip. -- in
6:12 AM 6:31 PM
Waning Crescent, 31% visible
Pressure 29.68 in
Visibility 10.0 miles
Clouds Scattered Clouds 8000 ft
Scattered Clouds 12000 ft
Mostly Cloudy 22000 ft
Heat Index 84 °F
Dew Point 69 °F
Humidity 66%
Rainfall 0.12 in
Snow Depth 0 in , 0 in , 0 in
UV 0 out of 12
Pollen 2.50 out of 12
PM2.5 Good
Flu Activity Not available.
METAR KPHX 180151Z 03006KT 10SM SCT080 SCT120 BKN220 29/19 A2973 RMK AO2 SLP050 T02940194

More Conditions Fewer Conditions

Pressure 29.68 in
Visibility 10.0 miles
Clouds Scattered Clouds 8000 ft
Scattered Clouds 12000 ft
Mostly Cloudy 22000 ft
Heat Index 84 °F
Dew Point 69 °F
Humidity 66%
Rainfall 0.12 in
Snow Depth 0 in , 0 in , 0 in
UV 0 out of 12
Pollen 2.50 out of 12
PM2.5 Good
Flu Activity Not available.
METAR KPHX 180151Z 03006KT 10SM SCT080 SCT120 BKN220 29/19 A2973 RMK AO2 SLP050 T02940194

More Conditions Fewer Conditions

10-Day Weather Forecast

Almanac

Astronomy

Sep. 17, 2014 Rise Set
Actual Time 6:12 AM MST 6:31 PM MST
Civil Twilight 5:47 AM MST 6:56 PM MST
Nautical Twilight 5:18 AM MST 7:25 PM MST
Astronomical Twilight 4:49 AM MST 7:54 PM MST
Moon 12:28 AM MST (9/17) 2:32 PM MST (9/17)
Length of Visible Light 13h 08m
Length of Day
12h 18m
Tomorrow will be 2m 4s shorter.
Waning Crescent, 31% of the Moon is Illuminated
Today
Waning Crescent
Sep 24
New
Oct 1
First Quarter
Oct 8
Full
Oct 15
Last Quarter

Today's Extremes

State Highs State Lows

Community

WunderPhotos

Upload Photos

1,754,268 photos uploaded!

Nearby

Air Quality

  Air Quality AQ Index Pollutant
Yesterday Good
PM2.5
Yesterday Good
OZONE
Current Good
PM2.5
Wednesday Good
OZONE
Wednesday Good
PM10
Wednesday Good
CO
Thursday Good
OZONE
Thursday Good
PM10
Thursday Good
CO
Friday Good
OZONE
Friday Good
PM10
Friday Good
CO

Snow Depth

Station Depth Elevation
Promontory 0 in 7930 ft
Maverick Fork 0 in 9200 ft
Coronado Trail 0 in 8400 ft
White Horse Lake 0 in 7180 ft
Snowslide Canyon 0 in 9730 ft

Earthquake Activity

City Distance Mag. Time & Date
No recent earthquake activity has been reported nearby.
Minimum magnitude displayed is 2.5.

Coastal Water Temperatures

Place Temperature
No Stations Reporting

Nearby Weather Stations